sensor_id;sensor_type;location;lat;lon;timestamp;P1;durP1;ratioP1;P2;durP2;ratioP2
67248;SDS011;63247;54.300;18.592;2024-03-23T00:53:25;26.27;;;5.18;;
67248;SDS011;63247;54.300;18.592;2024-03-23T00:55:50;23.67;;;5.60;;
67248;SDS011;63247;54.300;18.592;2024-03-23T00:58:16;23.83;;;4.73;;
67248;SDS011;63247;54.300;18.592;2024-03-23T01:00:41;22.70;;;4.80;;
67248;SDS011;63247;54.300;18.592;2024-03-23T01:03:06;21.60;;;4.55;;
67248;SDS011;63247;54.300;18.592;2024-03-23T01:05:32;19.73;;;4.70;;
67248;SDS011;63247;54.300;18.592;2024-03-23T01:07:58;23.17;;;5.43;;
67248;SDS011;63247;54.300;18.592;2024-03-23T01:10:23;28.70;;;6.30;;
67248;SDS011;63247;54.300;18.592;2024-03-23T01:12:48;22.77;;;5.90;;
67248;SDS011;63247;54.300;18.592;2024-03-23T01:15:14;25.87;;;5.87;;
67248;SDS011;63247;54.300;18.592;2024-03-23T01:17:39;32.07;;;6.70;;
67248;SDS011;63247;54.300;18.592;2024-03-23T01:20:05;28.37;;;6.13;;
67248;SDS011;63247;54.300;18.592;2024-03-23T01:22:31;30.48;;;7.50;;
67248;SDS011;63247;54.300;18.592;2024-03-23T01:24:57;29.75;;;6.00;;
67248;SDS011;63247;54.300;18.592;2024-03-23T01:27:22;25.40;;;6.27;;
67248;SDS011;63247;54.300;18.592;2024-03-23T01:29:48;28.83;;;6.67;;
67248;SDS011;63247;54.300;18.592;2024-03-23T01:32:13;29.50;;;6.78;;
67248;SDS011;63247;54.300;18.592;2024-03-23T01:34:39;27.08;;;6.65;;
67248;SDS011;63247;54.300;18.592;2024-03-23T01:37:04;24.60;;;6.67;;
67248;SDS011;63247;54.300;18.592;2024-03-23T01:39:30;37.07;;;7.23;;
67248;SDS011;63247;54.300;18.592;2024-03-23T01:41:55;26.80;;;6.23;;
67248;SDS011;63247;54.300;18.592;2024-03-23T01:44:20;23.40;;;6.07;;
67248;SDS011;63247;54.300;18.592;2024-03-23T01:46:46;27.60;;;6.60;;
67248;SDS011;63247;54.300;18.592;2024-03-23T01:49:12;24.63;;;5.57;;
67248;SDS011;63247;54.300;18.592;2024-03-23T01:51:38;24.23;;;6.43;;
67248;SDS011;63247;54.300;18.592;2024-03-23T01:54:04;27.92;;;6.35;;
67248;SDS011;63247;54.300;18.592;2024-03-23T01:56:34;32.75;;;7.50;;
67248;SDS011;63247;54.300;18.592;2024-03-23T01:59:03;27.77;;;6.72;;
67248;SDS011;63247;54.300;18.592;2024-03-23T02:01:29;27.42;;;6.28;;
67248;SDS011;63247;54.300;18.592;2024-03-23T02:03:55;24.00;;;6.13;;
67248;SDS011;63247;54.300;18.592;2024-03-23T02:06:20;27.57;;;6.53;;
67248;SDS011;63247;54.300;18.592;2024-03-23T02:08:47;23.40;;;5.90;;
67248;SDS011;63247;54.300;18.592;2024-03-23T02:11:13;22.73;;;5.97;;
67248;SDS011;63247;54.300;18.592;2024-03-23T02:13:39;26.40;;;5.88;;
67248;SDS011;63247;54.300;18.592;2024-03-23T02:16:05;27.50;;;6.57;;
67248;SDS011;63247;54.300;18.592;2024-03-23T02:18:31;24.70;;;5.95;;
67248;SDS011;63247;54.300;18.592;2024-03-23T02:20:57;25.85;;;6.10;;
67248;SDS011;63247;54.300;18.592;2024-03-23T02:23:22;28.40;;;6.93;;
67248;SDS011;63247;54.300;18.592;2024-03-23T02:25:49;29.90;;;6.40;;
67248;SDS011;63247;54.300;18.592;2024-03-23T02:28:15;25.50;;;5.70;;
67248;SDS011;63247;54.300;18.592;2024-03-23T02:30:40;27.20;;;5.93;;
67248;SDS011;63247;54.300;18.592;2024-03-23T02:33:05;28.10;;;5.97;;
67248;SDS011;63247;54.300;18.592;2024-03-23T02:35:31;22.65;;;5.93;;
67248;SDS011;63247;54.300;18.592;2024-03-23T02:37:57;26.63;;;6.10;;
67248;SDS011;63247;54.300;18.592;2024-03-23T02:40:25;29.33;;;6.17;;
67248;SDS011;63247;54.300;18.592;2024-03-23T02:42:51;28.98;;;6.05;;
67248;SDS011;63247;54.300;18.592;2024-03-23T02:45:17;26.25;;;5.30;;
67248;SDS011;63247;54.300;18.592;2024-03-23T02:47:43;26.57;;;5.33;;
67248;SDS011;63247;54.300;18.592;2024-03-23T02:50:08;25.60;;;5.10;;
67248;SDS011;63247;54.300;18.592;2024-03-23T02:52:34;21.25;;;5.35;;
67248;SDS011;63247;54.300;18.592;2024-03-23T02:55:00;27.35;;;5.70;;
67248;SDS011;63247;54.300;18.592;2024-03-23T02:57:27;22.00;;;5.27;;
67248;SDS011;63247;54.300;18.592;2024-03-23T02:59:52;24.02;;;5.55;;
67248;SDS011;63247;54.300;18.592;2024-03-23T03:02:17;24.77;;;5.53;;
67248;SDS011;63247;54.300;18.592;2024-03-23T03:04:43;31.53;;;5.47;;
67248;SDS011;63247;54.300;18.592;2024-03-23T03:07:08;29.60;;;5.53;;
67248;SDS011;63247;54.300;18.592;2024-03-23T03:09:34;20.70;;;5.00;;
67248;SDS011;63247;54.300;18.592;2024-03-23T03:12:00;28.90;;;6.10;;
67248;SDS011;63247;54.300;18.592;2024-03-23T03:14:27;26.40;;;6.18;;
67248;SDS011;63247;54.300;18.592;2024-03-23T03:16:53;24.67;;;5.55;;
67248;SDS011;63247;54.300;18.592;2024-03-23T03:19:19;24.45;;;5.63;;
67248;SDS011;63247;54.300;18.592;2024-03-23T03:21:44;23.40;;;5.00;;
67248;SDS011;63247;54.300;18.592;2024-03-23T03:24:09;24.83;;;5.80;;
67248;SDS011;63247;54.300;18.592;2024-03-23T03:26:35;25.93;;;5.40;;
67248;SDS011;63247;54.300;18.592;2024-03-23T03:29:00;36.78;;;7.28;;
67248;SDS011;63247;54.300;18.592;2024-03-23T03:31:26;33.65;;;6.20;;
67248;SDS011;63247;54.300;18.592;2024-03-23T03:33:51;30.70;;;6.33;;
67248;SDS011;63247;54.300;18.592;2024-03-23T03:36:17;33.93;;;5.63;;
67248;SDS011;63247;54.300;18.592;2024-03-23T03:38:42;29.48;;;6.50;;
67248;SDS011;63247;54.300;18.592;2024-03-23T03:41:08;35.53;;;6.25;;
67248;SDS011;63247;54.300;18.592;2024-03-23T03:43:33;35.27;;;5.67;;
67248;SDS011;63247;54.300;18.592;2024-03-23T03:45:59;24.13;;;5.50;;
67248;SDS011;63247;54.300;18.592;2024-03-23T03:48:25;32.03;;;5.70;;
67248;SDS011;63247;54.300;18.592;2024-03-23T03:50:51;24.33;;;5.33;;
67248;SDS011;63247;54.300;18.592;2024-03-23T03:53:17;26.65;;;5.53;;
67248;SDS011;63247;54.300;18.592;2024-03-23T03:55:43;30.33;;;6.32;;
67248;SDS011;63247;54.300;18.592;2024-03-23T03:58:09;25.57;;;6.50;;
67248;SDS011;63247;54.300;18.592;2024-03-23T04:00:34;28.80;;;5.73;;
67248;SDS011;63247;54.300;18.592;2024-03-23T04:03:00;24.23;;;5.18;;
67248;SDS011;63247;54.300;18.592;2024-03-23T04:05:26;26.60;;;5.70;;
67248;SDS011;63247;54.300;18.592;2024-03-23T04:07:51;26.40;;;5.40;;
67248;SDS011;63247;54.300;18.592;2024-03-23T04:10:16;30.25;;;5.40;;
67248;SDS011;63247;54.300;18.592;2024-03-23T04:12:43;25.90;;;5.63;;
67248;SDS011;63247;54.300;18.592;2024-03-23T04:15:09;22.90;;;4.97;;
67248;SDS011;63247;54.300;18.592;2024-03-23T04:17:35;29.83;;;5.67;;
67248;SDS011;63247;54.300;18.592;2024-03-23T04:20:01;28.27;;;4.97;;
67248;SDS011;63247;54.300;18.592;2024-03-23T04:22:28;31.80;;;5.40;;
67248;SDS011;63247;54.300;18.592;2024-03-23T04:24:54;23.95;;;5.55;;
67248;SDS011;63247;54.300;18.592;2024-03-23T04:27:20;30.27;;;5.05;;
67248;SDS011;63247;54.300;18.592;2024-03-23T04:29:48;31.63;;;5.60;;
67248;SDS011;63247;54.300;18.592;2024-03-23T04:32:15;26.23;;;4.90;;
67248;SDS011;63247;54.300;18.592;2024-03-23T04:34:41;30.55;;;5.07;;
67248;SDS011;63247;54.300;18.592;2024-03-23T04:37:06;37.80;;;5.60;;
67248;SDS011;63247;54.300;18.592;2024-03-23T04:39:32;27.02;;;6.30;;
67248;SDS011;63247;54.300;18.592;2024-03-23T04:41:58;27.98;;;5.43;;
67248;SDS011;63247;54.300;18.592;2024-03-23T04:44:23;23.90;;;4.70;;
67248;SDS011;63247;54.300;18.592;2024-03-23T04:46:49;30.27;;;5.40;;
67248;SDS011;63247;54.300;18.592;2024-03-23T04:49:14;30.83;;;5.10;;
67248;SDS011;63247;54.300;18.592;2024-03-23T04:51:39;25.70;;;5.33;;
67248;SDS011;63247;54.300;18.592;2024-03-23T04:54:10;24.75;;;5.85;;
67248;SDS011;63247;54.300;18.592;2024-03-23T04:56:36;35.63;;;6.80;;
67248;SDS011;63247;54.300;18.592;2024-03-23T04:59:02;33.00;;;6.73;;
67248;SDS011;63247;54.300;18.592;2024-03-23T05:01:29;29.77;;;6.05;;
67248;SDS011;63247;54.300;18.592;2024-03-23T05:03:56;34.08;;;6.20;;
67248;SDS011;63247;54.300;18.592;2024-03-23T05:06:22;27.53;;;6.00;;
67248;SDS011;63247;54.300;18.592;2024-03-23T05:08:47;26.13;;;5.35;;
67248;SDS011;63247;54.300;18.592;2024-03-23T05:11:13;25.10;;;4.70;;
67248;SDS011;63247;54.300;18.592;2024-03-23T05:13:38;27.13;;;4.93;;
67248;SDS011;63247;54.300;18.592;2024-03-23T05:16:04;29.83;;;5.05;;
67248;SDS011;63247;54.300;18.592;2024-03-23T05:18:29;32.70;;;5.63;;
67248;SDS011;63247;54.300;18.592;2024-03-23T05:20:58;28.52;;;5.70;;
67248;SDS011;63247;54.300;18.592;2024-03-23T05:23:28;27.83;;;4.80;;
67248;SDS011;63247;54.300;18.592;2024-03-23T05:25:54;26.55;;;5.40;;
67248;SDS011;63247;54.300;18.592;2024-03-23T05:28:20;28.05;;;5.50;;
67248;SDS011;63247;54.300;18.592;2024-03-23T05:30:55;28.85;;;5.70;;
67248;SDS011;63247;54.300;18.592;2024-03-23T05:33:21;27.17;;;5.00;;
67248;SDS011;63247;54.300;18.592;2024-03-23T05:35:47;31.70;;;5.85;;
67248;SDS011;63247;54.300;18.592;2024-03-23T05:38:20;25.37;;;5.20;;
67248;SDS011;63247;54.300;18.592;2024-03-23T05:40:52;22.85;;;5.25;;
67248;SDS011;63247;54.300;18.592;2024-03-23T05:43:21;29.80;;;5.47;;
67248;SDS011;63247;54.300;18.592;2024-03-23T05:45:59;25.48;;;5.32;;
67248;SDS011;63247;54.300;18.592;2024-03-23T05:48:32;30.17;;;5.70;;
67248;SDS011;63247;54.300;18.592;2024-03-23T05:50:58;37.88;;;6.28;;
67248;SDS011;63247;54.300;18.592;2024-03-23T05:53:24;24.67;;;5.07;;
67248;SDS011;63247;54.300;18.592;2024-03-23T05:55:50;33.30;;;5.38;;
67248;SDS011;63247;54.300;18.592;2024-03-23T05:58:18;27.60;;;5.97;;
67248;SDS011;63247;54.300;18.592;2024-03-23T06:00:45;21.33;;;5.00;;
67248;SDS011;63247;54.300;18.592;2024-03-23T06:03:10;32.95;;;5.10;;
67248;SDS011;63247;54.300;18.592;2024-03-23T06:05:36;17.02;;;4.60;;
67248;SDS011;63247;54.300;18.592;2024-03-23T06:08:02;27.58;;;4.63;;
67248;SDS011;63247;54.300;18.592;2024-03-23T06:10:28;31.13;;;4.90;;
67248;SDS011;63247;54.300;18.592;2024-03-23T06:12:54;25.70;;;4.68;;
67248;SDS011;63247;54.300;18.592;2024-03-23T06:15:19;22.50;;;4.97;;
67248;SDS011;63247;54.300;18.592;2024-03-23T06:17:45;28.55;;;4.90;;
67248;SDS011;63247;54.300;18.592;2024-03-23T06:20:11;29.07;;;5.47;;
67248;SDS011;63247;54.300;18.592;2024-03-23T06:22:37;33.67;;;5.00;;
67248;SDS011;63247;54.300;18.592;2024-03-23T06:25:03;26.07;;;4.60;;
67248;SDS011;63247;54.300;18.592;2024-03-23T06:27:28;25.50;;;5.30;;
67248;SDS011;63247;54.300;18.592;2024-03-23T06:29:54;26.40;;;4.63;;
67248;SDS011;63247;54.300;18.592;2024-03-23T06:32:20;25.43;;;4.20;;
67248;SDS011;63247;54.300;18.592;2024-03-23T06:34:46;23.38;;;4.90;;
67248;SDS011;63247;54.300;18.592;2024-03-23T06:37:11;32.73;;;4.53;;
67248;SDS011;63247;54.300;18.592;2024-03-23T06:39:37;21.10;;;4.38;;
67248;SDS011;63247;54.300;18.592;2024-03-23T06:42:03;24.80;;;4.57;;
67248;SDS011;63247;54.300;18.592;2024-03-23T06:44:29;29.45;;;5.13;;
67248;SDS011;63247;54.300;18.592;2024-03-23T06:46:55;29.60;;;5.60;;
67248;SDS011;63247;54.300;18.592;2024-03-23T06:49:22;30.87;;;5.63;;
67248;SDS011;63247;54.300;18.592;2024-03-23T06:51:48;31.50;;;4.90;;
67248;SDS011;63247;54.300;18.592;2024-03-23T06:54:13;27.00;;;5.67;;
67248;SDS011;63247;54.300;18.592;2024-03-23T06:56:39;24.48;;;4.65;;
67248;SDS011;63247;54.300;18.592;2024-03-23T06:59:05;28.38;;;4.57;;
67248;SDS011;63247;54.300;18.592;2024-03-23T07:01:30;26.37;;;5.37;;
67248;SDS011;63247;54.300;18.592;2024-03-23T07:03:56;26.00;;;5.57;;
67248;SDS011;63247;54.300;18.592;2024-03-23T07:06:21;23.52;;;4.93;;
67248;SDS011;63247;54.300;18.592;2024-03-23T07:08:47;24.25;;;5.40;;
67248;SDS011;63247;54.300;18.592;2024-03-23T07:11:18;25.47;;;5.07;;
67248;SDS011;63247;54.300;18.592;2024-03-23T07:13:49;31.00;;;4.97;;
67248;SDS011;63247;54.300;18.592;2024-03-23T07:16:15;33.07;;;5.07;;
67248;SDS011;63247;54.300;18.592;2024-03-23T07:18:41;31.55;;;5.10;;
67248;SDS011;63247;54.300;18.592;2024-03-23T07:21:06;33.67;;;5.80;;
67248;SDS011;63247;54.300;18.592;2024-03-23T07:23:32;33.75;;;5.50;;
67248;SDS011;63247;54.300;18.592;2024-03-23T07:28:23;31.00;;;5.57;;
67248;SDS011;63247;54.300;18.592;2024-03-23T07:31:01;32.53;;;5.47;;
67248;SDS011;63247;54.300;18.592;2024-03-23T07:33:36;22.25;;;5.18;;
67248;SDS011;63247;54.300;18.592;2024-03-23T07:36:03;33.50;;;6.05;;
67248;SDS011;63247;54.300;18.592;2024-03-23T07:38:29;25.47;;;4.77;;
67248;SDS011;63247;54.300;18.592;2024-03-23T07:41:04;30.98;;;6.53;;
67248;SDS011;63247;54.300;18.592;2024-03-23T07:43:34;29.02;;;5.68;;
67248;SDS011;63247;54.300;18.592;2024-03-23T07:46:00;25.30;;;5.00;;
67248;SDS011;63247;54.300;18.592;2024-03-23T07:48:25;23.97;;;4.93;;
67248;SDS011;63247;54.300;18.592;2024-03-23T07:51:01;24.50;;;4.70;;
67248;SDS011;63247;54.300;18.592;2024-03-23T07:53:47;22.17;;;4.32;;
67248;SDS011;63247;54.300;18.592;2024-03-23T07:56:17;18.67;;;4.50;;
67248;SDS011;63247;54.300;18.592;2024-03-23T07:58:44;19.27;;;4.10;;
67248;SDS011;63247;54.300;18.592;2024-03-23T08:01:13;17.58;;;4.03;;
67248;SDS011;63247;54.300;18.592;2024-03-23T08:03:41;23.55;;;4.88;;
67248;SDS011;63247;54.300;18.592;2024-03-23T08:08:39;17.08;;;4.43;;
67248;SDS011;63247;54.300;18.592;2024-03-23T08:11:05;21.63;;;4.93;;
67248;SDS011;63247;54.300;18.592;2024-03-23T08:13:31;22.67;;;3.60;;
67248;SDS011;63247;54.300;18.592;2024-03-23T08:15:57;20.83;;;4.00;;
67248;SDS011;63247;54.300;18.592;2024-03-23T08:18:23;15.97;;;3.63;;
67248;SDS011;63247;54.300;18.592;2024-03-23T08:20:58;21.65;;;3.70;;
67248;SDS011;63247;54.300;18.592;2024-03-23T08:23:25;17.63;;;4.00;;
67248;SDS011;63247;54.300;18.592;2024-03-23T08:25:52;19.73;;;3.73;;
67248;SDS011;63247;54.300;18.592;2024-03-23T08:28:22;15.40;;;3.47;;
67248;SDS011;63247;54.300;18.592;2024-03-23T08:30:47;20.08;;;4.45;;
67248;SDS011;63247;54.300;18.592;2024-03-23T08:33:14;21.73;;;4.77;;
67248;SDS011;63247;54.300;18.592;2024-03-23T08:35:40;17.63;;;4.63;;
67248;SDS011;63247;54.300;18.592;2024-03-23T08:38:06;14.73;;;3.58;;
67248;SDS011;63247;54.300;18.592;2024-03-23T08:40:32;17.63;;;3.70;;
67248;SDS011;63247;54.300;18.592;2024-03-23T08:42:57;19.40;;;3.97;;
67248;SDS011;63247;54.300;18.592;2024-03-23T08:45:24;16.05;;;3.97;;
67248;SDS011;63247;54.300;18.592;2024-03-23T08:47:50;17.60;;;3.63;;
67248;SDS011;63247;54.300;18.592;2024-03-23T08:50:15;20.02;;;4.00;;
67248;SDS011;63247;54.300;18.592;2024-03-23T08:52:41;12.43;;;2.90;;
67248;SDS011;63247;54.300;18.592;2024-03-23T08:55:06;11.70;;;2.70;;
67248;SDS011;63247;54.300;18.592;2024-03-23T08:57:32;9.57;;;2.15;;
67248;SDS011;63247;54.300;18.592;2024-03-23T08:59:57;13.47;;;2.23;;
67248;SDS011;63247;54.300;18.592;2024-03-23T09:02:23;6.67;;;1.77;;
67248;SDS011;63247;54.300;18.592;2024-03-23T09:04:48;8.60;;;2.08;;
67248;SDS011;63247;54.300;18.592;2024-03-23T09:07:14;10.93;;;2.08;;
67248;SDS011;63247;54.300;18.592;2024-03-23T09:09:39;11.83;;;2.37;;
67248;SDS011;63247;54.300;18.592;2024-03-23T09:12:05;10.73;;;2.40;;
67248;SDS011;63247;54.300;18.592;2024-03-23T09:14:31;11.48;;;2.60;;
67248;SDS011;63247;54.300;18.592;2024-03-23T09:16:58;10.48;;;2.65;;
67248;SDS011;63247;54.300;18.592;2024-03-23T09:19:23;12.77;;;2.90;;
67248;SDS011;63247;54.300;18.592;2024-03-23T09:21:49;15.03;;;2.80;;
67248;SDS011;63247;54.300;18.592;2024-03-23T09:24:14;11.20;;;2.67;;
67248;SDS011;63247;54.300;18.592;2024-03-23T09:26:40;13.20;;;3.03;;
67248;SDS011;63247;54.300;18.592;2024-03-23T09:29:05;10.83;;;2.60;;
67248;SDS011;63247;54.300;18.592;2024-03-23T09:31:30;15.23;;;2.80;;
67248;SDS011;63247;54.300;18.592;2024-03-23T09:33:58;12.43;;;3.38;;
67248;SDS011;63247;54.300;18.592;2024-03-23T09:36:24;12.90;;;2.60;;
67248;SDS011;63247;54.300;18.592;2024-03-23T09:38:49;14.90;;;2.80;;
67248;SDS011;63247;54.300;18.592;2024-03-23T09:41:14;9.93;;;2.42;;
67248;SDS011;63247;54.300;18.592;2024-03-23T09:43:40;10.60;;;2.83;;
67248;SDS011;63247;54.300;18.592;2024-03-23T09:46:06;10.90;;;2.80;;
67248;SDS011;63247;54.300;18.592;2024-03-23T09:48:33;13.43;;;3.30;;
67248;SDS011;63247;54.300;18.592;2024-03-23T09:50:59;13.03;;;3.17;;
67248;SDS011;63247;54.300;18.592;2024-03-23T09:53:24;13.07;;;2.83;;
67248;SDS011;63247;54.300;18.592;2024-03-23T09:55:50;9.27;;;3.00;;
67248;SDS011;63247;54.300;18.592;2024-03-23T09:58:16;9.67;;;2.33;;
67248;SDS011;63247;54.300;18.592;2024-03-23T10:00:42;9.93;;;2.05;;
67248;SDS011;63247;54.300;18.592;2024-03-23T10:03:07;11.37;;;2.40;;
67248;SDS011;63247;54.300;18.592;2024-03-23T10:05:35;9.27;;;2.33;;
67248;SDS011;63247;54.300;18.592;2024-03-23T10:08:02;9.40;;;2.47;;
67248;SDS011;63247;54.300;18.592;2024-03-23T10:10:43;10.57;;;2.70;;
67248;SDS011;63247;54.300;18.592;2024-03-23T10:13:09;10.27;;;2.45;;
67248;SDS011;63247;54.300;18.592;2024-03-23T10:15:38;9.48;;;2.30;;
67248;SDS011;63247;54.300;18.592;2024-03-23T10:20:47;7.47;;;2.05;;
67248;SDS011;63247;54.300;18.592;2024-03-23T10:23:31;9.23;;;1.52;;
67248;SDS011;63247;54.300;18.592;2024-03-23T10:28:50;11.73;;;2.08;;
67248;SDS011;63247;54.300;18.592;2024-03-23T10:31:33;10.38;;;2.03;;
67248;SDS011;63247;54.300;18.592;2024-03-23T10:33:59;9.05;;;1.90;;
67248;SDS011;63247;54.300;18.592;2024-03-23T10:36:25;7.25;;;1.90;;
67248;SDS011;63247;54.300;18.592;2024-03-23T10:38:51;7.63;;;1.70;;
67248;SDS011;63247;54.300;18.592;2024-03-23T10:41:20;7.78;;;2.03;;
67248;SDS011;63247;54.300;18.592;2024-03-23T10:43:47;7.30;;;1.97;;
67248;SDS011;63247;54.300;18.592;2024-03-23T10:46:13;9.25;;;2.00;;
67248;SDS011;63247;54.300;18.592;2024-03-23T10:48:39;10.98;;;2.13;;
67248;SDS011;63247;54.300;18.592;2024-03-23T10:51:08;8.00;;;1.90;;
67248;SDS011;63247;54.300;18.592;2024-03-23T10:53:35;8.32;;;1.70;;
67248;SDS011;63247;54.300;18.592;2024-03-23T10:56:02;10.30;;;1.83;;
67248;SDS011;63247;54.300;18.592;2024-03-23T10:58:33;10.02;;;2.00;;
67248;SDS011;63247;54.300;18.592;2024-03-23T11:01:03;10.77;;;1.90;;
67248;SDS011;63247;54.300;18.592;2024-03-23T11:03:29;8.02;;;1.70;;
67248;SDS011;63247;54.300;18.592;2024-03-23T11:05:55;10.48;;;2.10;;
67248;SDS011;63247;54.300;18.592;2024-03-23T11:08:31;6.63;;;2.00;;
67248;SDS011;63247;54.300;18.592;2024-03-23T11:13:49;12.18;;;2.30;;
67248;SDS011;63247;54.300;18.592;2024-03-23T11:16:24;8.35;;;2.00;;
67248;SDS011;63247;54.300;18.592;2024-03-23T11:21:59;8.07;;;2.00;;
67248;SDS011;63247;54.300;18.592;2024-03-23T11:24:24;8.10;;;2.03;;
67248;SDS011;63247;54.300;18.592;2024-03-23T11:26:50;7.13;;;2.07;;
67248;SDS011;63247;54.300;18.592;2024-03-23T11:29:16;8.20;;;2.30;;
67248;SDS011;63247;54.300;18.592;2024-03-23T11:31:46;9.27;;;2.03;;
67248;SDS011;63247;54.300;18.592;2024-03-23T11:34:19;7.57;;;1.95;;
67248;SDS011;63247;54.300;18.592;2024-03-23T11:36:45;8.93;;;2.13;;
67248;SDS011;63247;54.300;18.592;2024-03-23T11:39:12;9.57;;;2.35;;
67248;SDS011;63247;54.300;18.592;2024-03-23T11:41:46;9.00;;;2.20;;
67248;SDS011;63247;54.300;18.592;2024-03-23T11:44:18;9.63;;;2.22;;
67248;SDS011;63247;54.300;18.592;2024-03-23T11:46:45;12.65;;;2.13;;
67248;SDS011;63247;54.300;18.592;2024-03-23T11:49:27;7.95;;;2.10;;
67248;SDS011;63247;54.300;18.592;2024-03-23T11:51:54;7.50;;;2.08;;
67248;SDS011;63247;54.300;18.592;2024-03-23T11:54:21;9.83;;;2.50;;
67248;SDS011;63247;54.300;18.592;2024-03-23T11:56:57;8.45;;;2.60;;
67248;SDS011;63247;54.300;18.592;2024-03-23T12:02:09;10.50;;;3.70;;
67248;SDS011;63247;54.300;18.592;2024-03-23T12:04:36;11.70;;;4.25;;
67248;SDS011;63247;54.300;18.592;2024-03-23T12:07:12;9.57;;;2.90;;
67248;SDS011;63247;54.300;18.592;2024-03-23T12:09:44;10.80;;;2.40;;
67248;SDS011;63247;54.300;18.592;2024-03-23T12:12:16;15.15;;;5.07;;
67248;SDS011;63247;54.300;18.592;2024-03-23T12:14:43;8.93;;;3.08;;
67248;SDS011;63247;54.300;18.592;2024-03-23T12:17:13;9.95;;;2.50;;
67248;SDS011;63247;54.300;18.592;2024-03-23T12:19:39;10.73;;;2.73;;
67248;SDS011;63247;54.300;18.592;2024-03-23T12:22:06;29.27;;;8.63;;
67248;SDS011;63247;54.300;18.592;2024-03-23T12:24:32;25.05;;;6.53;;
67248;SDS011;63247;54.300;18.592;2024-03-23T12:27:04;43.63;;;11.47;;
67248;SDS011;63247;54.300;18.592;2024-03-23T12:29:30;26.10;;;6.75;;
67248;SDS011;63247;54.300;18.592;2024-03-23T12:31:59;16.83;;;4.63;;
67248;SDS011;63247;54.300;18.592;2024-03-23T12:34:25;13.55;;;3.15;;
67248;SDS011;63247;54.300;18.592;2024-03-23T12:36:51;13.53;;;3.13;;
67248;SDS011;63247;54.300;18.592;2024-03-23T12:39:16;12.82;;;3.00;;
67248;SDS011;63247;54.300;18.592;2024-03-23T12:41:42;15.07;;;3.83;;
67248;SDS011;63247;54.300;18.592;2024-03-23T12:44:07;19.23;;;5.63;;
67248;SDS011;63247;54.300;18.592;2024-03-23T12:46:36;16.95;;;4.55;;
67248;SDS011;63247;54.300;18.592;2024-03-23T12:49:02;9.48;;;3.08;;
67248;SDS011;63247;54.300;18.592;2024-03-23T12:51:28;8.77;;;2.70;;
67248;SDS011;63247;54.300;18.592;2024-03-23T12:53:53;9.13;;;2.90;;
67248;SDS011;63247;54.300;18.592;2024-03-23T12:56:19;10.23;;;3.03;;
67248;SDS011;63247;54.300;18.592;2024-03-23T12:58:44;11.80;;;5.00;;
67248;SDS011;63247;54.300;18.592;2024-03-23T13:01:10;27.23;;;13.53;;
67248;SDS011;63247;54.300;18.592;2024-03-23T13:03:35;13.53;;;4.23;;
67248;SDS011;63247;54.300;18.592;2024-03-23T13:06:00;13.57;;;3.75;;
67248;SDS011;63247;54.300;18.592;2024-03-23T13:08:26;12.13;;;3.00;;
67248;SDS011;63247;54.300;18.592;2024-03-23T13:10:52;10.32;;;3.17;;
67248;SDS011;63247;54.300;18.592;2024-03-23T13:13:18;11.00;;;3.20;;
67248;SDS011;63247;54.300;18.592;2024-03-23T13:15:49;10.43;;;3.10;;
67248;SDS011;63247;54.300;18.592;2024-03-23T13:18:15;8.80;;;2.80;;
67248;SDS011;63247;54.300;18.592;2024-03-23T13:20:40;8.90;;;3.57;;
67248;SDS011;63247;54.300;18.592;2024-03-23T13:23:06;12.93;;;3.67;;
67248;SDS011;63247;54.300;18.592;2024-03-23T13:25:31;12.17;;;3.30;;
67248;SDS011;63247;54.300;18.592;2024-03-23T13:27:58;11.13;;;3.50;;
67248;SDS011;63247;54.300;18.592;2024-03-23T13:30:23;12.67;;;4.37;;
67248;SDS011;63247;54.300;18.592;2024-03-23T13:32:49;12.57;;;3.40;;
67248;SDS011;63247;54.300;18.592;2024-03-23T13:35:15;13.00;;;3.90;;
67248;SDS011;63247;54.300;18.592;2024-03-23T13:37:40;13.93;;;4.40;;
67248;SDS011;63247;54.300;18.592;2024-03-23T13:40:06;14.02;;;4.70;;
67248;SDS011;63247;54.300;18.592;2024-03-23T13:42:33;14.70;;;4.37;;
67248;SDS011;63247;54.300;18.592;2024-03-23T13:44:58;14.32;;;5.20;;
67248;SDS011;63247;54.300;18.592;2024-03-23T13:47:23;19.10;;;5.83;;
67248;SDS011;63247;54.300;18.592;2024-03-23T13:49:49;13.73;;;5.00;;
67248;SDS011;63247;54.300;18.592;2024-03-23T13:52:14;14.70;;;5.00;;
67248;SDS011;63247;54.300;18.592;2024-03-23T13:54:40;17.40;;;5.03;;
67248;SDS011;63247;54.300;18.592;2024-03-23T13:57:11;10.05;;;3.70;;
67248;SDS011;63247;54.300;18.592;2024-03-23T13:59:36;15.88;;;5.22;;
67248;SDS011;63247;54.300;18.592;2024-03-23T14:02:02;15.87;;;5.83;;
67248;SDS011;63247;54.300;18.592;2024-03-23T14:04:27;14.37;;;4.90;;
67248;SDS011;63247;54.300;18.592;2024-03-23T14:06:53;15.23;;;4.78;;
67248;SDS011;63247;54.300;18.592;2024-03-23T14:09:19;19.13;;;5.63;;
67248;SDS011;63247;54.300;18.592;2024-03-23T14:11:47;19.38;;;7.38;;
67248;SDS011;63247;54.300;18.592;2024-03-23T14:14:13;16.17;;;5.40;;
67248;SDS011;63247;54.300;18.592;2024-03-23T14:16:41;17.75;;;5.50;;
67248;SDS011;63247;54.300;18.592;2024-03-23T14:19:07;17.92;;;6.43;;
67248;SDS011;63247;54.300;18.592;2024-03-23T14:21:33;17.23;;;5.77;;
67248;SDS011;63247;54.300;18.592;2024-03-23T14:24:01;17.40;;;6.10;;
67248;SDS011;63247;54.300;18.592;2024-03-23T14:26:27;17.70;;;6.45;;
67248;SDS011;63247;54.300;18.592;2024-03-23T14:28:53;16.27;;;4.70;;
67248;SDS011;63247;54.300;18.592;2024-03-23T14:31:19;14.95;;;4.55;;
67248;SDS011;63247;54.300;18.592;2024-03-23T14:33:44;12.47;;;4.97;;
67248;SDS011;63247;54.300;18.592;2024-03-23T14:36:13;23.55;;;7.85;;
67248;SDS011;63247;54.300;18.592;2024-03-23T14:38:39;17.60;;;6.53;;
67248;SDS011;63247;54.300;18.592;2024-03-23T14:41:05;13.70;;;4.80;;
67248;SDS011;63247;54.300;18.592;2024-03-23T14:43:30;13.65;;;4.85;;
67248;SDS011;63247;54.300;18.592;2024-03-23T14:46:15;18.60;;;6.00;;
67248;SDS011;63247;54.300;18.592;2024-03-23T14:48:42;14.13;;;5.10;;
67248;SDS011;63247;54.300;18.592;2024-03-23T14:51:09;14.30;;;4.97;;
67248;SDS011;63247;54.300;18.592;2024-03-23T14:53:37;13.98;;;4.78;;
67248;SDS011;63247;54.300;18.592;2024-03-23T14:56:09;14.43;;;4.50;;
67248;SDS011;63247;54.300;18.592;2024-03-23T14:58:38;17.45;;;4.95;;
67248;SDS011;63247;54.300;18.592;2024-03-23T15:01:07;16.17;;;4.67;;
67248;SDS011;63247;54.300;18.592;2024-03-23T15:03:37;11.05;;;4.60;;
67248;SDS011;63247;54.300;18.592;2024-03-23T15:06:04;18.35;;;4.47;;
67248;SDS011;63247;54.300;18.592;2024-03-23T15:08:30;17.08;;;4.63;;
67248;SDS011;63247;54.300;18.592;2024-03-23T15:10:58;13.43;;;4.80;;
67248;SDS011;63247;54.300;18.592;2024-03-23T15:13:25;20.58;;;5.25;;
67248;SDS011;63247;54.300;18.592;2024-03-23T15:15:51;24.37;;;5.83;;
67248;SDS011;63247;54.300;18.592;2024-03-23T15:18:17;21.77;;;5.13;;
67248;SDS011;63247;54.300;18.592;2024-03-23T15:21:01;21.00;;;5.43;;
67248;SDS011;63247;54.300;18.592;2024-03-23T15:23:30;20.67;;;5.57;;
67248;SDS011;63247;54.300;18.592;2024-03-23T15:25:59;24.87;;;5.80;;
67248;SDS011;63247;54.300;18.592;2024-03-23T15:28:26;23.75;;;6.43;;
67248;SDS011;63247;54.300;18.592;2024-03-23T15:31:02;25.83;;;5.97;;
67248;SDS011;63247;54.300;18.592;2024-03-23T15:33:28;28.13;;;6.00;;